This is the latest recevied weather packets stored in our database for station/object N9OJR. If no packets are shown the sender has not sent any weather packets the latest 10 day(s).
| Time | Temp. | Humidity | Pressure | Rain* | Wind** | Luminosity | Snow |
|---|---|---|---|---|---|---|---|
| 1777571173 | 6.67° C | 97% | 1011.4 hPa | 1.78 mm | - | 279 W/m² | - |
| 1777570868 | 6.11° C | 96% | 1011.5 hPa | 4.83 mm | - | 159 W/m² | - |
| 1777570564 | 6.11° C | 94% | 1011.3 hPa | 10.67 mm | - | 135 W/m² | - |
| 1777570262 | 7.22° C | 89% | 1011.4 hPa | 7.11 mm | - | 106 W/m² | - |
| 1777569957 | 8.89° C | 77% | 1011.2 hPa | 0 mm | - | 59 W/m² | - |
| 1777569653 | 10° C | 73% | 1010.9 hPa | 0 mm | - | 75 W/m² | - |
| 1777569349 | 10.56° C | 72% | 1010.8 hPa | 0 mm | - | 157 W/m² | - |
| 1777569045 | 10° C | 73% | 1010.9 hPa | 0 mm | - | 615 W/m² | - |
| 1777568742 | 10.56° C | 73% | 1011 hPa | 0 mm | - | 276 W/m² | - |
| 1777568440 | 11.11° C | 76% | 1011.2 hPa | 0 mm | - | 277 W/m² | - |
| 1777568137 | 10.56° C | 75% | 1011.1 hPa | 0 mm | - | 550 W/m² | - |
| 1777567833 | 10.56° C | 77% | 1011.1 hPa | 0 mm | - | 389 W/m² | - |
| 1777567529 | 10° C | 75% | 1011.2 hPa | 0 mm | - | 437 W/m² | - |
| 1777567227 | 10° C | 77% | 1011 hPa | 0 mm | - | 523 W/m² | - |
| 1777566925 | 9.44° C | 77% | 1011.1 hPa | 0 mm | - | 494 W/m² | - |
| 1777566623 | 9.44° C | 79% | 1011.3 hPa | 0 mm | - | 323 W/m² | - |
| 1777566320 | 8.89° C | 80% | 1011.3 hPa | 0 mm | - | 310 W/m² | - |
| 1777566018 | 8.89° C | 79% | 1011.3 hPa | 0 mm | - | 271 W/m² | - |
| 1777565713 | 8.89° C | 81% | 1011.2 hPa | 0 mm | - | 216 W/m² | - |
| 1777565410 | 8.33° C | 79% | 1011.3 hPa | 0 mm | - | 280 W/m² | - |
| 1777565106 | 8.33° C | 80% | 1011.2 hPa | 0 mm | - | 226 W/m² | - |
| 1777564802 | 7.78° C | 81% | 1011 hPa | 0 mm | - | 190 W/m² | - |
| 1777564496 | 7.78° C | 80% | 1011.1 hPa | 0 mm | - | 113 W/m² | - |
| 1777564192 | 8.33° C | 80% | 1011.2 hPa | 0 mm | - | 103 W/m² | - |
| 1777563889 | 8.33° C | 80% | 1011.1 hPa | 0 mm | - | 198 W/m² | - |
* Rain latest hour (hover to see other rain measurements)
** Current wind speed in m/s (hover to see current wind gust speed)